ELY198 MPTO-LLBG
Flight info
| Callsign | ELY198 |
|---|---|
| Flight time | N/A |
| Altitude | 35000 |
| Route | EGETA3A EGETA DCT AGUJA UM597 IRBAR/N0478F370 UM597 LIDOL UG444 BOTES G444 GTK DCT LAMER/M081F370 DCT BALTN DCT QINCY/M081F390 DCT SOORY/M081F370 DCT 43N050W/M081F390 46N040W 49N030W 50N020W DCT SOMAX DCT ATSUR/M083F410 DCT TAKAS/N0478F410 DCT ALUTA DCT KORER DCT LEMKA DCT BEBIX/N0471F400 DCT VALKU/N0478F410 DCT TIS DCT MEBAK DCT GIPNO DCT BALSI DCT OBIGO DCT ROBEX DCT LAPRI/N0471F400 DCT MOGBO/N0477F410 DCT LURUT DCT EDUGI DCT RILIM DCT KOFER DCT PINDO DCT NEVRA DCT AKINA DCT VANZA DCT PIKOG L609 ZUKKO |
| Aircraft | B772/H-SDE2E3FGHIJ5LORVWXY/LB1D1 |
Departure
| Time | 2026-05-06 15:11 |
|---|---|
| Airport | Tocumen International Airport (MPTO) |
Arrival
| Time | N/A |
|---|---|
| Airport | Ben Gurion International Airport (LLBG) |
| Time | Latitude | Longitude | Altitude | Speed | Heading |
|---|---|---|---|---|---|
| 2026-05-06 14:50 | 9.08765 | -79.37440 | 35 ft | 0 kts | 166° |
| 2026-05-06 14:59 | 9.08778 | -79.37443 | 34 ft | 4 kts | 166° |
| 2026-05-06 14:59 | 9.08804 | -79.37449 | 35 ft | 4 kts | 166° |
| 2026-05-06 14:59 | 9.08829 | -79.37453 | 34 ft | 4 kts | 193° |
| 2026-05-06 15:00 | 9.08842 | -79.37449 | 35 ft | 0 kts | 214° |
| 2026-05-06 15:02 | 9.08841 | -79.37450 | 35 ft | 3 kts | 214° |
| 2026-05-06 15:02 | 9.08752 | -79.37515 | 35 ft | 21 kts | 219° |
| 2026-05-06 15:02 | 9.08636 | -79.37601 | 35 ft | 21 kts | 214° |
| 2026-05-06 15:02 | 9.08517 | -79.37683 | 36 ft | 21 kts | 214° |
| 2026-05-06 15:03 | 9.08403 | -79.37782 | 36 ft | 22 kts | 224° |
| 2026-05-06 15:03 | 9.08295 | -79.37891 | 37 ft | 22 kts | 227° |
| 2026-05-06 15:03 | 9.08188 | -79.38000 | 37 ft | 22 kts | 217° |
| 2026-05-06 15:03 | 9.08065 | -79.38085 | 38 ft | 22 kts | 213° |
| 2026-05-06 15:04 | 9.07936 | -79.38164 | 39 ft | 22 kts | 211° |
| 2026-05-06 15:04 | 9.07806 | -79.38242 | 39 ft | 23 kts | 210° |
| 2026-05-06 15:04 | 9.07667 | -79.38326 | 39 ft | 23 kts | 211° |
| 2026-05-06 15:04 | 9.07536 | -79.38405 | 39 ft | 21 kts | 211° |
| 2026-05-06 15:05 | 9.07413 | -79.38480 | 39 ft | 21 kts | 211° |
| 2026-05-06 15:05 | 9.07296 | -79.38479 | 36 ft | 18 kts | 127° |
| 2026-05-06 15:05 | 9.07229 | -79.38368 | 35 ft | 18 kts | 121° |
| 2026-05-06 15:05 | 9.07162 | -79.38256 | 34 ft | 19 kts | 118° |
| 2026-05-06 15:06 | 9.07088 | -79.38149 | 34 ft | 19 kts | 156° |
| 2026-05-06 15:06 | 9.06967 | -79.38191 | 34 ft | 19 kts | 207° |
| 2026-05-06 15:06 | 9.06850 | -79.38252 | 34 ft | 19 kts | 207° |
| 2026-05-06 15:06 | 9.06734 | -79.38315 | 34 ft | 19 kts | 208° |
| 2026-05-06 15:07 | 9.06618 | -79.38379 | 34 ft | 19 kts | 209° |
| 2026-05-06 15:07 | 9.06505 | -79.38445 | 34 ft | 19 kts | 210° |
| 2026-05-06 15:07 | 9.06385 | -79.38515 | 34 ft | 22 kts | 210° |
| 2026-05-06 15:07 | 9.06237 | -79.38601 | 34 ft | 25 kts | 210° |
| 2026-05-06 15:08 | 9.06085 | -79.38688 | 34 ft | 26 kts | 209° |
| 2026-05-06 15:08 | 9.05930 | -79.38776 | 34 ft | 26 kts | 209° |
| 2026-05-06 15:08 | 9.05775 | -79.38864 | 34 ft | 26 kts | 210° |
| 2026-05-06 15:08 | 9.05621 | -79.38953 | 34 ft | 26 kts | 210° |
| 2026-05-06 15:09 | 9.05467 | -79.39043 | 34 ft | 26 kts | 210° |
| 2026-05-06 15:09 | 9.05314 | -79.39133 | 34 ft | 25 kts | 210° |
| 2026-05-06 15:09 | 9.05162 | -79.39221 | 34 ft | 25 kts | 209° |
| 2026-05-06 15:09 | 9.05005 | -79.39305 | 34 ft | 25 kts | 209° |
| 2026-05-06 15:10 | 9.04863 | -79.39370 | 34 ft | 18 kts | 185° |
| 2026-05-06 15:10 | 9.04795 | -79.39283 | 36 ft | 18 kts | 89° |
| 2026-05-06 15:10 | 9.04887 | -79.39190 | 36 ft | 31 kts | 29° |
| 2026-05-06 15:10 | 9.05277 | -79.38969 | 35 ft | 97 kts | 29° |
| 2026-05-06 15:11 | 9.06038 | -79.38535 | 36 ft | 153 kts | 29° |
| 2026-05-06 15:11 | 9.07098 | -79.37935 | 219 ft | 186 kts | 28° |
| 2026-05-06 15:11 | 9.08184 | -79.37230 | 911 ft | 183 kts | 35° |
| 2026-05-06 15:11 | 9.09186 | -79.36488 | 1721 ft | 176 kts | 36° |
| 2026-05-06 15:12 | 9.10213 | -79.35709 | 2037 ft | 192 kts | 37° |
| 2026-05-06 15:12 | 9.11303 | -79.34880 | 2477 ft | 200 kts | 37° |
| 2026-05-06 15:12 | 9.12426 | -79.34022 | 2992 ft | 204 kts | 37° |
| 2026-05-06 15:12 | 9.13580 | -79.33139 | 3377 ft | 212 kts | 37° |
| 2026-05-06 15:13 | 9.14777 | -79.32228 | 3807 ft | 218 kts | 37° |
| 2026-05-06 15:13 | 9.16029 | -79.31273 | 4089 ft | 235 kts | 38° |
| 2026-05-06 15:13 | 9.17356 | -79.30265 | 4552 ft | 242 kts | 38° |
| 2026-05-06 15:13 | 9.18706 | -79.29233 | 5127 ft | 245 kts | 38° |
| 2026-05-06 15:14 | 9.20077 | -79.28183 | 5697 ft | 249 kts | 38° |
| 2026-05-06 15:14 | 9.21468 | -79.27124 | 6270 ft | 253 kts | 39° |
| 2026-05-06 15:14 | 9.22919 | -79.26021 | 6582 ft | 268 kts | 39° |
| 2026-05-06 15:14 | 9.24430 | -79.24869 | 7075 ft | 275 kts | 39° |
| 2026-05-06 15:15 | 9.25968 | -79.23696 | 7713 ft | 278 kts | 39° |
| 2026-05-06 15:15 | 9.27514 | -79.22518 | 8378 ft | 279 kts | 39° |
| 2026-05-06 15:15 | 9.29077 | -79.21327 | 9013 ft | 283 kts | 39° |
| 2026-05-06 15:15 | 9.30660 | -79.20121 | 9679 ft | 286 kts | 40° |
| 2026-05-06 15:16 | 9.32257 | -79.18902 | 10265 ft | 291 kts | 40° |
| 2026-05-06 15:16 | 9.33918 | -79.17637 | 10561 ft | 306 kts | 39° |
| 2026-05-06 15:16 | 9.35643 | -79.16323 | 11037 ft | 314 kts | 39° |
| 2026-05-06 15:16 | 9.37401 | -79.14983 | 11648 ft | 315 kts | 40° |
| 2026-05-06 15:17 | 9.39155 | -79.13646 | 12017 ft | 317 kts | 40° |
| 2026-05-06 15:17 | 9.40914 | -79.12304 | 12502 ft | 322 kts | 40° |
| 2026-05-06 15:17 | 9.42704 | -79.10937 | 13254 ft | 323 kts | 40° |
| 2026-05-06 15:17 | 9.44501 | -79.09567 | 13990 ft | 323 kts | 40° |
| 2026-05-06 15:18 | 9.46309 | -79.08188 | 14601 ft | 327 kts | 40° |
| 2026-05-06 15:18 | 9.48075 | -79.06722 | 15174 ft | 329 kts | 46° |
| 2026-05-06 15:18 | 9.49683 | -79.05064 | 15785 ft | 332 kts | 49° |
| 2026-05-06 15:18 | 9.51246 | -79.03323 | 16419 ft | 335 kts | 50° |
| 2026-05-06 15:19 | 9.52808 | -79.01556 | 17056 ft | 339 kts | 50° |
| 2026-05-06 15:19 | 9.54396 | -78.99767 | 17697 ft | 343 kts | 50° |
| 2026-05-06 15:19 | 9.56012 | -78.97961 | 18009 ft | 357 kts | 50° |
| 2026-05-06 15:19 | 9.57723 | -78.96060 | 18200 ft | 373 kts | 49° |
| 2026-05-06 15:20 | 9.59503 | -78.94096 | 18552 ft | 383 kts | 49° |
| 2026-05-06 15:20 | 9.61302 | -78.92124 | 19041 ft | 388 kts | 49° |
| 2026-05-06 15:20 | 9.63149 | -78.90105 | 19816 ft | 393 kts | 49° |
| 2026-05-06 15:20 | 9.65018 | -78.88065 | 20672 ft | 398 kts | 49° |
| 2026-05-06 15:21 | 9.66927 | -78.85981 | 21260 ft | 410 kts | 48° |
| 2026-05-06 15:21 | 9.68889 | -78.83838 | 21921 ft | 419 kts | 48° |
| 2026-05-06 15:21 | 9.70881 | -78.81664 | 22705 ft | 424 kts | 48° |
| 2026-05-06 15:21 | 9.72855 | -78.79511 | 23512 ft | 428 kts | 47° |
| 2026-05-06 15:22 | 9.74873 | -78.77311 | 24118 ft | 431 kts | 47° |
| 2026-05-06 15:22 | 9.76921 | -78.75076 | 24636 ft | 433 kts | 47° |
| 2026-05-06 15:22 | 9.78981 | -78.72826 | 25021 ft | 438 kts | 47° |
| 2026-05-06 15:22 | 9.81060 | -78.70556 | 25391 ft | 442 kts | 47° |
| 2026-05-06 15:23 | 9.83162 | -78.68259 | 25805 ft | 445 kts | 47° |
| 2026-05-06 15:23 | 9.85275 | -78.65950 | 26213 ft | 448 kts | 47° |
| 2026-05-06 15:23 | 9.87401 | -78.63626 | 26621 ft | 451 kts | 47° |
| 2026-05-06 15:23 | 9.89538 | -78.61288 | 27018 ft | 453 kts | 47° |
| 2026-05-06 15:24 | 9.91690 | -78.58934 | 27375 ft | 457 kts | 47° |
| 2026-05-06 15:24 | 9.93855 | -78.56567 | 27769 ft | 459 kts | 47° |
| 2026-05-06 15:24 | 9.96031 | -78.54188 | 28144 ft | 461 kts | 47° |
| 2026-05-06 15:24 | 9.98221 | -78.51794 | 28514 ft | 464 kts | 47° |
| 2026-05-06 15:25 | 10.00423 | -78.49382 | 28838 ft | 467 kts | 46° |
| 2026-05-06 15:25 | 10.02635 | -78.46961 | 29198 ft | 469 kts | 46° |
| 2026-05-06 15:25 | 10.04858 | -78.44528 | 29560 ft | 471 kts | 47° |
| 2026-05-06 15:25 | 10.07095 | -78.42079 | 29867 ft | 474 kts | 46° |
| 2026-05-06 15:26 | 10.09342 | -78.39620 | 30135 ft | 477 kts | 46° |
| 2026-05-06 15:26 | 10.11598 | -78.37147 | 30383 ft | 479 kts | 46° |
| 2026-05-06 15:26 | 10.13871 | -78.34655 | 30615 ft | 481 kts | 46° |
| 2026-05-06 15:26 | 10.16147 | -78.32159 | 30889 ft | 483 kts | 46° |
| 2026-05-06 15:27 | 10.18432 | -78.29652 | 31111 ft | 485 kts | 46° |
| 2026-05-06 15:27 | 10.20729 | -78.27136 | 31324 ft | 487 kts | 46° |
| 2026-05-06 15:27 | 10.23034 | -78.24609 | 31544 ft | 488 kts | 46° |
| 2026-05-06 15:27 | 10.25344 | -78.22073 | 31742 ft | 490 kts | 46° |
| 2026-05-06 15:28 | 10.27661 | -78.19530 | 31931 ft | 492 kts | 46° |
| 2026-05-06 15:28 | 10.29990 | -78.16971 | 32111 ft | 494 kts | 46° |
| 2026-05-06 15:28 | 10.32326 | -78.14406 | 32286 ft | 496 kts | 46° |
| 2026-05-06 15:28 | 10.34668 | -78.11835 | 32504 ft | 496 kts | 46° |
| 2026-05-06 15:29 | 10.37010 | -78.09261 | 32738 ft | 496 kts | 45° |
| 2026-05-06 15:29 | 10.39324 | -78.06719 | 32952 ft | 496 kts | 45° |
| 2026-05-06 15:29 | 10.41668 | -78.04143 | 33180 ft | 496 kts | 45° |
| 2026-05-06 15:29 | 10.44009 | -78.01571 | 33432 ft | 496 kts | 45° |
| 2026-05-06 15:30 | 10.46353 | -77.98995 | 33657 ft | 496 kts | 45° |
| 2026-05-06 15:30 | 10.48693 | -77.96422 | 33881 ft | 496 kts | 45° |
| 2026-05-06 15:30 | 10.51033 | -77.93846 | 34085 ft | 496 kts | 45° |
| 2026-05-06 15:30 | 10.53372 | -77.91272 | 34283 ft | 496 kts | 45° |
| 2026-05-06 15:31 | 10.55705 | -77.88705 | 34504 ft | 495 kts | 45° |
| 2026-05-06 15:31 | 10.58043 | -77.86131 | 34743 ft | 494 kts | 45° |
| 2026-05-06 15:31 | 10.60376 | -77.83564 | 34861 ft | 496 kts | 45° |
| 2026-05-06 15:32 | 10.67389 | -77.75837 | 34953 ft | 494 kts | 45° |
| 2026-05-06 15:32 | 10.72040 | -77.70709 | 34956 ft | 493 kts | 45° |
| 2026-05-06 15:33 | 10.76684 | -77.65588 | 34950 ft | 493 kts | 45° |
| 2026-05-06 15:33 | 10.81328 | -77.60464 | 34951 ft | 493 kts | 45° |
| 2026-05-06 15:34 | 10.85967 | -77.55343 | 34949 ft | 493 kts | 46° |
| 2026-05-06 15:34 | 10.90620 | -77.50203 | 34953 ft | 494 kts | 45° |
| 2026-05-06 15:35 | 10.95279 | -77.45053 | 34948 ft | 495 kts | 45° |
| 2026-05-06 15:35 | 10.99951 | -77.39910 | 34948 ft | 495 kts | 45° |
| 2026-05-06 15:36 | 11.04711 | -77.34853 | 34951 ft | 494 kts | 44° |
| 2026-05-06 15:36 | 11.09478 | -77.29823 | 34949 ft | 493 kts | 44° |
| 2026-05-06 15:37 | 11.14227 | -77.24793 | 34947 ft | 492 kts | 44° |
| 2026-05-06 15:37 | 11.18929 | -77.19790 | 34946 ft | 492 kts | 44° |
| 2026-05-06 15:38 | 11.23656 | -77.14753 | 34956 ft | 492 kts | 44° |
| 2026-05-06 15:38 | 11.28397 | -77.09707 | 34952 ft | 493 kts | 44° |
| 2026-05-06 15:39 | 11.33139 | -77.04651 | 34953 ft | 494 kts | 44° |
| 2026-05-06 15:39 | 11.37119 | -77.00410 | 34936 ft | 494 kts | 44° |
| 2026-05-06 15:40 | 11.41942 | -76.95437 | 34954 ft | 493 kts | 43° |
| 2026-05-06 15:40 | 11.46839 | -76.90565 | 34954 ft | 491 kts | 42° |
| 2026-05-06 15:41 | 11.51689 | -76.85728 | 34937 ft | 491 kts | 42° |
| 2026-05-06 15:41 | 11.56549 | -76.80846 | 34956 ft | 491 kts | 43° |
| 2026-05-06 15:42 | 11.61410 | -76.75948 | 34941 ft | 491 kts | 42° |
| 2026-05-06 15:42 | 11.66273 | -76.71044 | 34957 ft | 492 kts | 42° |
| 2026-05-06 15:43 | 11.71145 | -76.66129 | 34941 ft | 493 kts | 42° |
| 2026-05-06 15:43 | 11.76019 | -76.61211 | 34960 ft | 492 kts | 43° |
| 2026-05-06 15:44 | 11.80883 | -76.56298 | 34961 ft | 491 kts | 43° |
| 2026-05-06 15:44 | 11.85738 | -76.51396 | 34961 ft | 491 kts | 43° |
| 2026-05-06 15:45 | 11.90550 | -76.46533 | 34957 ft | 491 kts | 43° |
| 2026-05-06 15:45 | 11.95389 | -76.41640 | 34960 ft | 491 kts | 43° |
| 2026-05-06 15:46 | 11.99508 | -76.37474 | 34957 ft | 492 kts | 43° |
| 2026-05-06 15:46 | 12.03898 | -76.33031 | 34964 ft | 492 kts | 43° |
| 2026-05-06 15:47 | 12.08747 | -76.28119 | 34963 ft | 492 kts | 43° |
| 2026-05-06 15:47 | 12.13606 | -76.23196 | 34961 ft | 491 kts | 43° |
| 2026-05-06 15:48 | 12.18455 | -76.18279 | 34945 ft | 490 kts | 43° |
| 2026-05-06 15:48 | 12.22275 | -76.14404 | 34963 ft | 490 kts | 43° |
| 2026-05-06 15:49 | 12.27103 | -76.09504 | 34971 ft | 490 kts | 42° |
| 2026-05-06 15:49 | 12.31925 | -76.04612 | 34951 ft | 491 kts | 42° |
| 2026-05-06 15:50 | 12.36788 | -75.99680 | 34968 ft | 491 kts | 43° |
| 2026-05-06 15:50 | 12.41526 | -75.94864 | 34977 ft | 491 kts | 42° |
| 2026-05-06 15:51 | 12.46312 | -75.90002 | 34957 ft | 490 kts | 42° |
| 2026-05-06 15:51 | 12.51141 | -75.85096 | 34976 ft | 488 kts | 43° |
| 2026-05-06 15:52 | 12.55954 | -75.80198 | 34965 ft | 487 kts | 42° |
| 2026-05-06 15:52 | 12.60637 | -75.75432 | 34965 ft | 487 kts | 42° |
| 2026-05-06 15:53 | 12.65344 | -75.70638 | 34984 ft | 488 kts | 42° |
| 2026-05-06 15:53 | 12.69900 | -75.65995 | 34973 ft | 488 kts | 43° |
| 2026-05-06 15:54 | 12.74467 | -75.61338 | 34985 ft | 488 kts | 43° |
| 2026-05-06 15:54 | 12.79210 | -75.56496 | 34965 ft | 484 kts | 43° |
| 2026-05-06 15:55 | 12.83841 | -75.51771 | 34977 ft | 479 kts | 43° |
| 2026-05-06 15:55 | 12.88505 | -75.47009 | 34989 ft | 478 kts | 43° |
| 2026-05-06 15:56 | 12.93093 | -75.42318 | 34978 ft | 478 kts | 43° |
| 2026-05-06 15:56 | 12.97677 | -75.37632 | 34980 ft | 480 kts | 43° |
| 2026-05-06 15:57 | 13.02149 | -75.33055 | 34982 ft | 482 kts | 42° |
| 2026-05-06 15:57 | 13.06716 | -75.28380 | 34987 ft | 483 kts | 42° |
| 2026-05-06 15:58 | 13.11351 | -75.23630 | 34978 ft | 474 kts | 43° |
| 2026-05-06 15:58 | 13.15979 | -75.18883 | 34982 ft | 471 kts | 43° |
| 2026-05-06 15:59 | 13.20634 | -75.14110 | 34996 ft | 474 kts | 43° |
| 2026-05-06 15:59 | 13.25317 | -75.09310 | 35005 ft | 476 kts | 43° |
| 2026-05-06 16:00 | 13.30006 | -75.04501 | 34992 ft | 477 kts | 43° |
| 2026-05-06 16:00 | 13.34702 | -74.99679 | 34996 ft | 478 kts | 43° |
| 2026-05-06 16:01 | 13.39399 | -74.94852 | 34991 ft | 478 kts | 42° |
| 2026-05-06 16:01 | 13.44093 | -74.90023 | 34994 ft | 477 kts | 43° |
| 2026-05-06 16:02 | 13.48783 | -74.85199 | 34996 ft | 476 kts | 43° |
| 2026-05-06 16:02 | 13.53457 | -74.80388 | 34993 ft | 476 kts | 43° |
| 2026-05-06 16:03 | 13.58133 | -74.75574 | 34998 ft | 476 kts | 43° |
| 2026-05-06 16:03 | 13.62804 | -74.70760 | 35002 ft | 475 kts | 43° |
| 2026-05-06 16:04 | 13.67477 | -74.65942 | 35003 ft | 476 kts | 43° |
| 2026-05-06 16:04 | 13.72149 | -74.61122 | 35004 ft | 476 kts | 43° |
| 2026-05-06 16:05 | 13.76814 | -74.56305 | 35015 ft | 474 kts | 43° |
| 2026-05-06 16:05 | 13.81432 | -74.51533 | 35008 ft | 472 kts | 43° |
| 2026-05-06 16:06 | 13.86060 | -74.46748 | 35004 ft | 471 kts | 43° |
| 2026-05-06 16:06 | 13.90703 | -74.41949 | 35004 ft | 470 kts | 43° |
| 2026-05-06 16:07 | 13.95284 | -74.37208 | 35009 ft | 471 kts | 43° |
| 2026-05-06 16:07 | 13.99905 | -74.32421 | 35012 ft | 472 kts | 43° |
| 2026-05-06 16:08 | 14.04548 | -74.27611 | 35015 ft | 474 kts | 43° |
| 2026-05-06 16:08 | 14.09205 | -74.22782 | 35012 ft | 475 kts | 43° |
| 2026-05-06 16:09 | 14.13865 | -74.17945 | 35015 ft | 476 kts | 43° |
| 2026-05-06 16:09 | 14.18523 | -74.13113 | 35021 ft | 475 kts | 43° |
| 2026-05-06 16:10 | 14.23186 | -74.08296 | 35011 ft | 474 kts | 43° |
| 2026-05-06 16:10 | 14.27838 | -74.03484 | 35015 ft | 474 kts | 43° |
| 2026-05-06 16:11 | 14.32483 | -73.98674 | 35016 ft | 473 kts | 43° |
| 2026-05-06 16:11 | 14.35886 | -73.95161 | 35023 ft | 474 kts | 43° |
| 2026-05-06 16:12 | 14.39027 | -73.91921 | 35027 ft | 475 kts | 43° |
| 2026-05-06 16:12 | 14.43703 | -73.87092 | 35019 ft | 475 kts | 43° |
| 2026-05-06 16:13 | 14.48366 | -73.82272 | 35015 ft | 474 kts | 43° |
| 2026-05-06 16:13 | 14.53019 | -73.77454 | 35024 ft | 473 kts | 43° |
| 2026-05-06 16:14 | 14.57665 | -73.72643 | 35025 ft | 473 kts | 43° |
| 2026-05-06 16:14 | 14.62309 | -73.67832 | 35033 ft | 473 kts | 43° |
| 2026-05-06 16:15 | 14.66955 | -73.63012 | 35035 ft | 474 kts | 43° |
| 2026-05-06 16:15 | 14.71606 | -73.58187 | 35032 ft | 475 kts | 43° |
| 2026-05-06 16:16 | 14.76243 | -73.53374 | 35032 ft | 475 kts | 43° |
| 2026-05-06 16:16 | 14.80879 | -73.48555 | 35031 ft | 476 kts | 43° |
| 2026-05-06 16:17 | 14.85513 | -73.43737 | 35031 ft | 476 kts | 43° |
| 2026-05-06 16:17 | 14.90207 | -73.39009 | 35039 ft | 475 kts | 40° |
| 2026-05-06 16:18 | 14.95036 | -73.34416 | 35039 ft | 474 kts | 40° |
| 2026-05-06 16:18 | 14.99865 | -73.29776 | 35046 ft | 473 kts | 41° |
| 2026-05-06 16:19 | 15.04686 | -73.25122 | 35041 ft | 474 kts | 39° |
| 2026-05-06 16:19 | 15.10151 | -73.21437 | 35044 ft | 468 kts | 23° |
| 2026-05-06 16:20 | 15.16295 | -73.19238 | 35434 ft | 465 kts | 13° |
| 2026-05-06 16:20 | 15.19424 | -73.18397 | 35688 ft | 465 kts | 13° |
| 2026-05-06 16:20 | 15.22556 | -73.17545 | 35877 ft | 466 kts | 13° |
| 2026-05-06 16:21 | 15.25668 | -73.16686 | 36009 ft | 468 kts | 13° |
| 2026-05-06 16:21 | 15.28790 | -73.15811 | 36357 ft | 465 kts | 13° |
| 2026-05-06 16:21 | 15.31921 | -73.14928 | 36496 ft | 467 kts | 13° |
| 2026-05-06 16:21 | 15.35061 | -73.14039 | 36649 ft | 468 kts | 14° |
| 2026-05-06 16:22 | 15.38170 | -73.13157 | 37072 ft | 463 kts | 14° |
| 2026-05-06 16:22 | 15.41289 | -73.12273 | 37029 ft | 466 kts | 14° |
| 2026-05-06 16:22 | 15.47509 | -73.10510 | 37048 ft | 464 kts | 13° |
| 2026-05-06 16:23 | 15.53694 | -73.08756 | 37049 ft | 463 kts | 14° |
| 2026-05-06 16:23 | 15.59901 | -73.07002 | 37055 ft | 463 kts | 14° |
| 2026-05-06 16:24 | 15.66117 | -73.05249 | 37048 ft | 463 kts | 14° |
| 2026-05-06 16:24 | 15.72332 | -73.03490 | 37061 ft | 462 kts | 14° |
| 2026-05-06 16:25 | 15.78535 | -73.01735 | 37048 ft | 462 kts | 14° |
| 2026-05-06 16:25 | 15.84726 | -72.99985 | 37053 ft | 461 kts | 14° |
| 2026-05-06 16:26 | 15.90908 | -72.98235 | 37056 ft | 460 kts | 14° |
| 2026-05-06 16:26 | 15.96038 | -72.96782 | 37057 ft | 460 kts | 14° |
| 2026-05-06 16:27 | 16.03216 | -72.94744 | 37069 ft | 460 kts | 13° |
| 2026-05-06 16:27 | 16.09414 | -72.92986 | 37059 ft | 461 kts | 14° |
| 2026-05-06 16:28 | 16.14556 | -72.91526 | 37063 ft | 461 kts | 13° |
| 2026-05-06 16:28 | 16.20754 | -72.89765 | 37065 ft | 462 kts | 13° |
| 2026-05-06 16:29 | 16.26946 | -72.88003 | 37065 ft | 462 kts | 14° |
| 2026-05-06 16:29 | 16.33091 | -72.86246 | 37065 ft | 462 kts | 14° |
| 2026-05-06 16:30 | 16.38242 | -72.84769 | 37066 ft | 462 kts | 14° |
| 2026-05-06 16:30 | 16.45485 | -72.82688 | 37068 ft | 462 kts | 14° |
| 2026-05-06 16:31 | 16.51676 | -72.80913 | 37068 ft | 461 kts | 14° |
| 2026-05-06 16:31 | 16.57862 | -72.79137 | 37072 ft | 461 kts | 14° |
| 2026-05-06 16:32 | 16.64032 | -72.77362 | 37068 ft | 461 kts | 14° |
| 2026-05-06 16:32 | 16.70172 | -72.75596 | 37077 ft | 460 kts | 14° |
| 2026-05-06 16:33 | 16.76332 | -72.73823 | 37067 ft | 458 kts | 14° |
| 2026-05-06 16:34 | 16.80538 | -72.72612 | 37070 ft | 457 kts | 14° |
| 2026-05-06 16:34 | 16.86662 | -72.70848 | 37072 ft | 456 kts | 14° |
| 2026-05-06 16:35 | 16.92775 | -72.69086 | 37072 ft | 456 kts | 14° |
| 2026-05-06 16:35 | 16.98901 | -72.67321 | 37089 ft | 456 kts | 13° |
| 2026-05-06 16:36 | 17.05119 | -72.66106 | 37069 ft | 453 kts | 7° |
| 2026-05-06 16:36 | 17.11293 | -72.65150 | 37069 ft | 450 kts | 7° |
| 2026-05-06 16:37 | 17.17479 | -72.64174 | 37074 ft | 449 kts | 7° |
| 2026-05-06 16:37 | 17.23648 | -72.63181 | 37078 ft | 448 kts | 7° |
| 2026-05-06 16:38 | 17.29826 | -72.62179 | 37077 ft | 449 kts | 7° |
| 2026-05-06 16:38 | 17.36003 | -72.61177 | 37081 ft | 450 kts | 7° |
| 2026-05-06 16:39 | 17.42197 | -72.60176 | 37090 ft | 451 kts | 7° |
| 2026-05-06 16:39 | 17.48390 | -72.59169 | 37081 ft | 452 kts | 7° |
| 2026-05-06 16:40 | 17.54601 | -72.58161 | 37083 ft | 452 kts | 7° |
| 2026-05-06 16:40 | 17.60783 | -72.57156 | 37080 ft | 452 kts | 7° |
| 2026-05-06 16:41 | 17.66991 | -72.56146 | 37095 ft | 450 kts | 7° |
| 2026-05-06 16:41 | 17.73122 | -72.55148 | 37064 ft | 444 kts | 7° |
| 2026-05-06 16:42 | 17.79199 | -72.54158 | 37065 ft | 439 kts | 7° |
| 2026-05-06 16:42 | 17.85229 | -72.53177 | 37081 ft | 438 kts | 7° |
| 2026-05-06 16:43 | 17.91240 | -72.52089 | 37087 ft | 440 kts | 12° |
| 2026-05-06 16:43 | 17.97078 | -72.50237 | 37097 ft | 442 kts | 15° |
| 2026-05-06 16:44 | 18.02951 | -72.48294 | 37090 ft | 443 kts | 15° |
| 2026-05-06 16:44 | 18.08839 | -72.46366 | 37099 ft | 443 kts | 15° |
| 2026-05-06 16:45 | 18.14719 | -72.44450 | 37096 ft | 442 kts | 15° |
| 2026-05-06 16:45 | 18.20592 | -72.42534 | 37091 ft | 441 kts | 15° |
| 2026-05-06 16:46 | 18.26104 | -72.40737 | 37068 ft | 441 kts | 15° |
| 2026-05-06 16:46 | 18.31956 | -72.38823 | 37099 ft | 440 kts | 15° |
| 2026-05-06 16:47 | 18.37792 | -72.36917 | 37087 ft | 438 kts | 15° |
| 2026-05-06 16:47 | 18.43616 | -72.35013 | 37064 ft | 438 kts | 15° |
| 2026-05-06 16:48 | 18.49396 | -72.33122 | 37071 ft | 437 kts | 15° |
| 2026-05-06 16:48 | 18.55203 | -72.31221 | 37063 ft | 437 kts | 15° |
| 2026-05-06 16:49 | 18.61007 | -72.29330 | 37084 ft | 436 kts | 15° |
| 2026-05-06 16:49 | 18.66800 | -72.27481 | 37074 ft | 434 kts | 14° |
| 2026-05-06 16:50 | 18.72574 | -72.25637 | 37061 ft | 432 kts | 15° |
| 2026-05-06 16:50 | 18.78336 | -72.23790 | 37067 ft | 434 kts | 14° |
| 2026-05-06 16:51 | 18.84120 | -72.21932 | 37054 ft | 435 kts | 15° |
| 2026-05-06 16:51 | 18.89422 | -72.20230 | 37053 ft | 436 kts | 14° |
| 2026-05-06 16:52 | 18.95218 | -72.18368 | 37050 ft | 437 kts | 14° |
| 2026-05-06 16:52 | 19.01029 | -72.16500 | 37049 ft | 437 kts | 14° |
| 2026-05-06 16:53 | 19.06867 | -72.14726 | 37045 ft | 436 kts | 13° |
| 2026-05-06 16:53 | 19.12710 | -72.12996 | 37046 ft | 435 kts | 13° |
| 2026-05-06 16:54 | 19.18528 | -72.11259 | 37050 ft | 434 kts | 13° |
| 2026-05-06 16:54 | 19.24338 | -72.09514 | 37064 ft | 433 kts | 13° |
| 2026-05-06 16:55 | 19.30086 | -72.07784 | 37051 ft | 432 kts | 13° |
| 2026-05-06 16:55 | 19.35860 | -72.06045 | 37053 ft | 431 kts | 13° |
| 2026-05-06 16:56 | 19.41631 | -72.04306 | 37051 ft | 431 kts | 13° |
| 2026-05-06 16:56 | 19.47396 | -72.02566 | 37058 ft | 431 kts | 13° |
| 2026-05-06 16:57 | 19.53169 | -72.00825 | 37048 ft | 432 kts | 13° |
| 2026-05-06 16:57 | 19.58952 | -71.99078 | 37054 ft | 432 kts | 13° |
| 2026-05-06 16:58 | 19.64739 | -71.97330 | 37049 ft | 432 kts | 13° |
| 2026-05-06 16:58 | 19.70289 | -71.95826 | 37040 ft | 431 kts | 11° |
| 2026-05-06 16:59 | 19.76060 | -71.94387 | 37049 ft | 430 kts | 11° |
| 2026-05-06 16:59 | 19.81879 | -71.92914 | 37056 ft | 430 kts | 11° |
| 2026-05-06 17:00 | 19.87687 | -71.91420 | 37072 ft | 429 kts | 11° |
| 2026-05-06 17:00 | 19.93490 | -71.89917 | 37082 ft | 429 kts | 11° |
| 2026-05-06 17:01 | 19.99296 | -71.88415 | 37065 ft | 430 kts | 11° |
| 2026-05-06 17:01 | 20.05107 | -71.86910 | 37070 ft | 430 kts | 11° |
| 2026-05-06 17:02 | 20.10921 | -71.85404 | 37061 ft | 430 kts | 11° |
| 2026-05-06 17:02 | 20.16733 | -71.83895 | 37069 ft | 430 kts | 11° |
| 2026-05-06 17:03 | 20.22548 | -71.82386 | 37069 ft | 430 kts | 11° |
| 2026-05-06 17:03 | 20.28286 | -71.80908 | 37062 ft | 429 kts | 11° |
| 2026-05-06 17:04 | 20.34093 | -71.79436 | 37061 ft | 429 kts | 11° |
| 2026-05-06 17:04 | 20.39872 | -71.77831 | 37057 ft | 430 kts | 16° |
| 2026-05-06 17:05 | 20.45405 | -71.75346 | 37077 ft | 434 kts | 24° |
| 2026-05-06 17:05 | 20.50673 | -71.72187 | 37068 ft | 435 kts | 25° |
| 2026-05-06 17:06 | 20.55934 | -71.69016 | 37082 ft | 434 kts | 25° |
| 2026-05-06 17:06 | 20.61198 | -71.65857 | 37068 ft | 435 kts | 25° |
| 2026-05-06 17:07 | 20.66434 | -71.62724 | 37064 ft | 435 kts | 25° |
| 2026-05-06 17:07 | 20.71706 | -71.59567 | 37081 ft | 435 kts | 25° |
| 2026-05-06 17:08 | 20.77016 | -71.56383 | 37098 ft | 435 kts | 25° |
| 2026-05-06 17:08 | 20.82254 | -71.53241 | 37074 ft | 435 kts | 25° |
| 2026-05-06 17:09 | 20.87529 | -71.50074 | 37076 ft | 435 kts | 25° |
| 2026-05-06 17:09 | 20.92786 | -71.46915 | 37076 ft | 436 kts | 25° |
| 2026-05-06 17:10 | 20.98067 | -71.43738 | 37076 ft | 436 kts | 25° |
| 2026-05-06 17:10 | 21.03353 | -71.40557 | 37082 ft | 436 kts | 25° |
| 2026-05-06 17:11 | 21.08618 | -71.37320 | 37094 ft | 437 kts | 27° |
| 2026-05-06 17:11 | 21.13766 | -71.33842 | 37081 ft | 437 kts | 28° |
| 2026-05-06 17:12 | 21.18891 | -71.30352 | 37081 ft | 436 kts | 28° |
| 2026-05-06 17:12 | 21.23986 | -71.26917 | 37081 ft | 435 kts | 27° |
| 2026-05-06 17:13 | 21.29119 | -71.23474 | 37084 ft | 435 kts | 27° |
| 2026-05-06 17:13 | 21.34249 | -71.20029 | 37086 ft | 435 kts | 27° |
| 2026-05-06 17:14 | 21.39377 | -71.16581 | 37093 ft | 435 kts | 27° |
| 2026-05-06 17:14 | 21.44695 | -71.13567 | 37085 ft | 430 kts | 19° |
| 2026-05-06 17:15 | 21.50327 | -71.11491 | 37089 ft | 427 kts | 13° |
| 2026-05-06 17:15 | 21.56060 | -71.09815 | 37089 ft | 427 kts | 12° |
| 2026-05-06 17:16 | 21.61802 | -71.08143 | 37089 ft | 427 kts | 12° |
| 2026-05-06 17:16 | 21.67537 | -71.06453 | 37101 ft | 427 kts | 12° |
| 2026-05-06 17:17 | 21.73269 | -71.04755 | 37094 ft | 427 kts | 12° |
| 2026-05-06 17:17 | 21.78996 | -71.03050 | 37091 ft | 427 kts | 12° |
| 2026-05-06 17:18 | 21.84676 | -71.01360 | 37093 ft | 426 kts | 12° |
| 2026-05-06 17:18 | 21.90393 | -70.99657 | 37094 ft | 427 kts | 12° |
| 2026-05-06 17:19 | 21.96116 | -70.97951 | 37093 ft | 426 kts | 12° |
| 2026-05-06 17:19 | 22.01829 | -70.96246 | 37097 ft | 426 kts | 12° |
| 2026-05-06 17:20 | 22.06579 | -70.94828 | 37095 ft | 426 kts | 12° |
| 2026-05-06 17:20 | 22.12288 | -70.93125 | 37097 ft | 426 kts | 12° |
| 2026-05-06 17:21 | 22.17994 | -70.91419 | 37102 ft | 425 kts | 12° |
| 2026-05-06 17:21 | 22.23701 | -70.89711 | 37101 ft | 426 kts | 12° |
| 2026-05-06 17:22 | 22.29407 | -70.88002 | 37118 ft | 426 kts | 12° |
| 2026-05-06 17:22 | 22.35124 | -70.86289 | 37106 ft | 427 kts | 12° |
| 2026-05-06 17:23 | 22.40851 | -70.84571 | 37101 ft | 428 kts | 12° |
| 2026-05-06 17:23 | 22.46591 | -70.82848 | 37104 ft | 428 kts | 12° |
| 2026-05-06 17:24 | 22.52326 | -70.81125 | 37108 ft | 428 kts | 12° |
| 2026-05-06 17:24 | 22.58072 | -70.79397 | 37113 ft | 428 kts | 12° |
| 2026-05-06 17:25 | 22.63817 | -70.77667 | 37100 ft | 429 kts | 12° |
| 2026-05-06 17:25 | 22.69561 | -70.75937 | 37107 ft | 428 kts | 12° |
| 2026-05-06 17:26 | 22.75303 | -70.74207 | 37111 ft | 428 kts | 12° |
| 2026-05-06 17:26 | 22.81043 | -70.72474 | 37112 ft | 428 kts | 12° |
| 2026-05-06 17:27 | 22.86782 | -70.70741 | 37122 ft | 428 kts | 12° |
| 2026-05-06 17:27 | 22.92521 | -70.69005 | 37111 ft | 428 kts | 12° |
| 2026-05-06 17:28 | 22.98259 | -70.67268 | 37112 ft | 428 kts | 12° |
| 2026-05-06 17:28 | 23.03994 | -70.65530 | 37109 ft | 428 kts | 12° |
| 2026-05-06 17:29 | 23.09733 | -70.63791 | 37110 ft | 428 kts | 12° |
| 2026-05-06 17:29 | 23.15466 | -70.62049 | 37117 ft | 428 kts | 12° |
| 2026-05-06 17:30 | 23.21207 | -70.60307 | 37115 ft | 428 kts | 12° |
| 2026-05-06 17:30 | 23.26946 | -70.58563 | 37112 ft | 428 kts | 12° |
| 2026-05-06 17:31 | 23.32690 | -70.56817 | 37117 ft | 429 kts | 12° |
| 2026-05-06 17:31 | 23.38400 | -70.55078 | 37111 ft | 429 kts | 12° |
| 2026-05-06 17:32 | 23.44149 | -70.53327 | 37120 ft | 429 kts | 12° |
| 2026-05-06 17:32 | 23.49912 | -70.51569 | 37115 ft | 430 kts | 12° |
| 2026-05-06 17:33 | 23.55688 | -70.49805 | 37119 ft | 432 kts | 12° |
| 2026-05-06 17:33 | 23.61481 | -70.48032 | 37116 ft | 432 kts | 12° |
| 2026-05-06 17:34 | 23.67278 | -70.46259 | 37111 ft | 433 kts | 12° |
| 2026-05-06 17:34 | 23.73075 | -70.44484 | 37123 ft | 433 kts | 12° |
| 2026-05-06 17:35 | 23.78872 | -70.42708 | 37117 ft | 433 kts | 12° |
| 2026-05-06 17:35 | 23.84675 | -70.40928 | 37115 ft | 433 kts | 12° |
| 2026-05-06 17:36 | 23.93372 | -70.38260 | 37117 ft | 433 kts | 12° |
| 2026-05-06 17:36 | 23.99155 | -70.36481 | 37122 ft | 432 kts | 12° |
| 2026-05-06 17:37 | 24.04945 | -70.34697 | 37126 ft | 432 kts | 12° |
| 2026-05-06 17:37 | 24.10736 | -70.32913 | 37129 ft | 432 kts | 12° |
| 2026-05-06 17:38 | 24.16529 | -70.31128 | 37129 ft | 433 kts | 12° |
| 2026-05-06 17:38 | 24.22324 | -70.29340 | 37130 ft | 433 kts | 12° |
| 2026-05-06 17:39 | 24.28123 | -70.27549 | 37131 ft | 433 kts | 12° |
| 2026-05-06 17:39 | 24.33888 | -70.25766 | 37134 ft | 433 kts | 12° |
| 2026-05-06 17:40 | 24.39734 | -70.23959 | 37124 ft | 434 kts | 12° |
| 2026-05-06 17:40 | 24.45499 | -70.22171 | 37125 ft | 433 kts | 12° |
| 2026-05-06 17:41 | 24.51302 | -70.20371 | 37126 ft | 433 kts | 12° |
| 2026-05-06 17:41 | 24.57118 | -70.18568 | 37121 ft | 435 kts | 12° |
| 2026-05-06 17:42 | 24.62948 | -70.16757 | 37143 ft | 436 kts | 12° |
| 2026-05-06 17:42 | 24.68796 | -70.14937 | 37133 ft | 438 kts | 12° |
| 2026-05-06 17:43 | 24.74664 | -70.13110 | 37127 ft | 438 kts | 12° |
| 2026-05-06 17:43 | 24.80538 | -70.11280 | 37129 ft | 439 kts | 12° |
| 2026-05-06 17:44 | 24.86411 | -70.09447 | 37126 ft | 439 kts | 12° |
| 2026-05-06 17:44 | 24.92282 | -70.07614 | 37134 ft | 438 kts | 12° |
| 2026-05-06 17:45 | 24.98148 | -70.05780 | 37134 ft | 438 kts | 12° |
| 2026-05-06 17:45 | 25.03941 | -70.03645 | 37142 ft | 440 kts | 16° |
| 2026-05-06 17:46 | 25.09674 | -70.01289 | 37135 ft | 440 kts | 16° |
| 2026-05-06 17:46 | 25.15406 | -69.98931 | 37133 ft | 440 kts | 16° |
| 2026-05-06 17:47 | 25.21107 | -69.96595 | 37138 ft | 440 kts | 16° |
| 2026-05-06 17:47 | 25.26850 | -69.94244 | 37134 ft | 440 kts | 16° |
| 2026-05-06 17:48 | 25.32596 | -69.91894 | 37132 ft | 440 kts | 16° |
| 2026-05-06 17:48 | 25.38341 | -69.89540 | 37137 ft | 440 kts | 16° |
| 2026-05-06 17:49 | 25.44082 | -69.87182 | 37139 ft | 440 kts | 16° |
| 2026-05-06 17:49 | 25.49820 | -69.84827 | 37146 ft | 441 kts | 16° |
| 2026-05-06 17:50 | 25.55579 | -69.82460 | 37146 ft | 442 kts | 16° |
| 2026-05-06 17:50 | 25.61356 | -69.80083 | 37135 ft | 443 kts | 16° |
| 2026-05-06 17:51 | 25.67133 | -69.77702 | 37138 ft | 443 kts | 16° |
| 2026-05-06 17:51 | 25.72913 | -69.75319 | 37159 ft | 443 kts | 15° |
| 2026-05-06 17:52 | 25.78697 | -69.72932 | 37136 ft | 444 kts | 15° |
| 2026-05-06 17:52 | 25.84484 | -69.70544 | 37136 ft | 444 kts | 16° |
| 2026-05-06 17:53 | 25.90265 | -69.68150 | 37147 ft | 443 kts | 16° |
| 2026-05-06 17:53 | 25.96043 | -69.65756 | 37144 ft | 443 kts | 16° |
| 2026-05-06 17:54 | 26.01819 | -69.63363 | 37148 ft | 443 kts | 15° |
| 2026-05-06 17:54 | 26.07563 | -69.60981 | 37141 ft | 443 kts | 15° |
| 2026-05-06 17:55 | 26.13338 | -69.58582 | 37145 ft | 443 kts | 15° |
| 2026-05-06 17:55 | 26.19119 | -69.56179 | 37144 ft | 443 kts | 15° |
| 2026-05-06 17:56 | 26.24896 | -69.53776 | 37144 ft | 443 kts | 15° |
| 2026-05-06 17:56 | 26.30675 | -69.51369 | 37149 ft | 444 kts | 16° |
| 2026-05-06 17:57 | 26.36463 | -69.48952 | 37143 ft | 445 kts | 16° |
| 2026-05-06 17:57 | 26.42259 | -69.46534 | 37142 ft | 445 kts | 16° |
| 2026-05-06 17:58 | 26.48063 | -69.44108 | 37141 ft | 445 kts | 16° |
| 2026-05-06 17:58 | 26.53867 | -69.41677 | 37162 ft | 445 kts | 15° |
| 2026-05-06 17:59 | 26.59630 | -69.39262 | 37148 ft | 445 kts | 15° |
| 2026-05-06 17:59 | 26.65429 | -69.36832 | 37142 ft | 445 kts | 16° |
| 2026-05-06 18:00 | 26.71224 | -69.34398 | 37145 ft | 445 kts | 15° |
| 2026-05-06 18:00 | 26.77012 | -69.31966 | 37147 ft | 444 kts | 15° |
| 2026-05-06 18:01 | 26.82805 | -69.29531 | 37155 ft | 445 kts | 15° |
| 2026-05-06 18:01 | 26.88594 | -69.27095 | 37142 ft | 444 kts | 15° |
| 2026-05-06 18:02 | 26.94381 | -69.24652 | 37145 ft | 444 kts | 15° |
| 2026-05-06 18:02 | 27.00160 | -69.22209 | 37147 ft | 444 kts | 15° |
| 2026-05-06 18:03 | 27.05941 | -69.19766 | 37146 ft | 445 kts | 15° |
| 2026-05-06 18:03 | 27.11733 | -69.17318 | 37154 ft | 445 kts | 15° |
| 2026-05-06 18:04 | 27.17519 | -69.14866 | 37147 ft | 444 kts | 15° |
| 2026-05-06 18:04 | 27.23305 | -69.12413 | 37147 ft | 444 kts | 15° |
| 2026-05-06 18:05 | 27.29085 | -69.09960 | 37150 ft | 444 kts | 15° |
| 2026-05-06 18:05 | 27.34863 | -69.07504 | 37167 ft | 444 kts | 15° |
| 2026-05-06 18:06 | 27.40649 | -69.05044 | 37154 ft | 444 kts | 15° |
| 2026-05-06 18:06 | 27.46428 | -69.02584 | 37152 ft | 444 kts | 15° |
| 2026-05-06 18:07 | 27.52169 | -69.00135 | 37152 ft | 444 kts | 15° |
| 2026-05-06 18:07 | 27.57944 | -68.97670 | 37153 ft | 444 kts | 15° |
| 2026-05-06 18:08 | 27.63721 | -68.95200 | 37164 ft | 444 kts | 15° |
| 2026-05-06 18:08 | 27.69498 | -68.92730 | 37154 ft | 444 kts | 15° |
| 2026-05-06 18:09 | 27.75268 | -68.90257 | 37155 ft | 443 kts | 15° |
| 2026-05-06 18:09 | 27.81033 | -68.87783 | 37157 ft | 443 kts | 15° |
| 2026-05-06 18:10 | 27.86799 | -68.85311 | 37184 ft | 443 kts | 15° |
| 2026-05-06 18:10 | 27.91618 | -68.83241 | 37164 ft | 443 kts | 15° |
| 2026-05-06 18:11 | 27.97384 | -68.80759 | 37159 ft | 443 kts | 15° |
| 2026-05-06 18:11 | 28.03152 | -68.78278 | 37161 ft | 444 kts | 15° |
| 2026-05-06 18:12 | 28.08923 | -68.75788 | 37162 ft | 444 kts | 15° |
| 2026-05-06 18:12 | 28.14653 | -68.73312 | 37175 ft | 444 kts | 15° |
| 2026-05-06 18:13 | 28.20419 | -68.70822 | 37151 ft | 443 kts | 15° |
| 2026-05-06 18:13 | 28.26178 | -68.68330 | 37153 ft | 443 kts | 15° |
| 2026-05-06 18:14 | 28.31929 | -68.65838 | 37156 ft | 442 kts | 15° |
| 2026-05-06 18:14 | 28.37679 | -68.63345 | 37172 ft | 442 kts | 15° |
| 2026-05-06 18:15 | 28.43466 | -68.60833 | 37169 ft | 442 kts | 15° |
| 2026-05-06 18:15 | 28.49215 | -68.58333 | 37158 ft | 442 kts | 15° |
| 2026-05-06 18:16 | 28.54928 | -68.55845 | 37165 ft | 442 kts | 15° |
| 2026-05-06 18:16 | 28.60671 | -68.53344 | 37166 ft | 442 kts | 15° |
| 2026-05-06 18:17 | 28.66430 | -68.50833 | 37173 ft | 444 kts | 15° |
| 2026-05-06 18:17 | 28.72200 | -68.48315 | 37172 ft | 444 kts | 15° |
| 2026-05-06 18:18 | 28.77977 | -68.45789 | 37165 ft | 445 kts | 15° |
| 2026-05-06 18:18 | 28.83749 | -68.43264 | 37173 ft | 445 kts | 15° |
| 2026-05-06 18:19 | 28.89524 | -68.40733 | 37167 ft | 445 kts | 16° |
| 2026-05-06 18:19 | 28.95301 | -68.38193 | 37172 ft | 445 kts | 16° |
| 2026-05-06 18:20 | 29.01079 | -68.35655 | 37170 ft | 445 kts | 16° |
| 2026-05-06 18:20 | 29.06837 | -68.33123 | 37172 ft | 444 kts | 16° |
| 2026-05-06 18:21 | 29.12606 | -68.30583 | 37169 ft | 444 kts | 16° |
| 2026-05-06 18:21 | 29.18370 | -68.28041 | 37173 ft | 444 kts | 16° |
| 2026-05-06 18:22 | 29.24138 | -68.25496 | 37171 ft | 444 kts | 16° |
| 2026-05-06 18:22 | 29.29898 | -68.22950 | 37168 ft | 444 kts | 16° |
| 2026-05-06 18:23 | 29.35655 | -68.20402 | 37173 ft | 443 kts | 16° |
| 2026-05-06 18:23 | 29.41404 | -68.17857 | 37173 ft | 445 kts | 16° |
| 2026-05-06 18:24 | 29.47178 | -68.15294 | 37176 ft | 445 kts | 16° |
| 2026-05-06 18:24 | 29.52961 | -68.12725 | 37171 ft | 446 kts | 16° |
| 2026-05-06 18:25 | 29.58752 | -68.10150 | 37177 ft | 447 kts | 16° |
| 2026-05-06 18:25 | 29.64555 | -68.07569 | 37198 ft | 447 kts | 16° |
| 2026-05-06 18:26 | 29.70298 | -68.05006 | 37181 ft | 446 kts | 16° |
| 2026-05-06 18:26 | 29.76084 | -68.02421 | 37175 ft | 446 kts | 16° |
| 2026-05-06 18:27 | 29.81855 | -67.99842 | 37176 ft | 444 kts | 16° |
| 2026-05-06 18:27 | 29.87622 | -67.97262 | 37177 ft | 444 kts | 16° |
| 2026-05-06 18:28 | 29.93382 | -67.94684 | 37183 ft | 444 kts | 16° |
| 2026-05-06 18:28 | 29.99129 | -67.92106 | 37176 ft | 443 kts | 16° |
| 2026-05-06 18:29 | 30.04878 | -67.89524 | 37180 ft | 443 kts | 16° |
| 2026-05-06 18:29 | 30.10622 | -67.86940 | 37179 ft | 443 kts | 16° |
| 2026-05-06 18:30 | 30.16365 | -67.84354 | 37188 ft | 443 kts | 16° |
| 2026-05-06 18:30 | 30.22077 | -67.81779 | 37178 ft | 442 kts | 16° |
| 2026-05-06 18:31 | 30.27832 | -67.79182 | 37180 ft | 443 kts | 16° |
| 2026-05-06 18:31 | 30.33576 | -67.76588 | 37181 ft | 444 kts | 16° |
| 2026-05-06 18:32 | 30.39334 | -67.73978 | 37199 ft | 445 kts | 16° |
| 2026-05-06 18:32 | 30.45100 | -67.71367 | 37182 ft | 445 kts | 16° |
| 2026-05-06 18:33 | 30.50827 | -67.68771 | 37179 ft | 445 kts | 16° |
| 2026-05-06 18:33 | 30.56586 | -67.66153 | 37179 ft | 444 kts | 16° |
| 2026-05-06 18:34 | 30.62343 | -67.63533 | 37196 ft | 444 kts | 16° |
| 2026-05-06 18:34 | 30.68082 | -67.60909 | 37184 ft | 443 kts | 17° |
| 2026-05-06 18:35 | 30.73610 | -67.57652 | 37183 ft | 447 kts | 23° |
| 2026-05-06 18:35 | 30.79042 | -67.54178 | 37196 ft | 446 kts | 23° |
| 2026-05-06 18:36 | 30.84501 | -67.50699 | 37182 ft | 448 kts | 23° |
| 2026-05-06 18:36 | 30.89994 | -67.47209 | 37189 ft | 451 kts | 23° |
| 2026-05-06 18:37 | 30.94576 | -67.44298 | 37180 ft | 452 kts | 23° |
| 2026-05-06 18:37 | 31.01030 | -67.40192 | 37179 ft | 452 kts | 23° |
| 2026-05-06 18:38 | 31.06550 | -67.36674 | 37180 ft | 452 kts | 23° |
| 2026-05-06 18:38 | 31.12044 | -67.33168 | 37178 ft | 450 kts | 22° |
| 2026-05-06 18:39 | 31.17524 | -67.29666 | 37174 ft | 448 kts | 22° |
| 2026-05-06 18:40 | 31.25700 | -67.24437 | 37177 ft | 446 kts | 22° |
| 2026-05-06 18:40 | 31.31142 | -67.20950 | 37187 ft | 446 kts | 23° |
| 2026-05-06 18:41 | 31.36564 | -67.17471 | 37180 ft | 449 kts | 23° |
| 2026-05-06 18:41 | 31.42052 | -67.13946 | 37181 ft | 451 kts | 23° |
| 2026-05-06 18:42 | 31.47559 | -67.10403 | 37179 ft | 453 kts | 23° |
| 2026-05-06 18:42 | 31.53087 | -67.06843 | 37178 ft | 454 kts | 23° |
| 2026-05-06 18:43 | 31.58616 | -67.03271 | 37188 ft | 454 kts | 23° |
| 2026-05-06 18:43 | 31.64134 | -66.99703 | 37176 ft | 452 kts | 23° |
| 2026-05-06 18:44 | 31.69618 | -66.96155 | 37174 ft | 450 kts | 23° |
| 2026-05-06 18:44 | 31.75089 | -66.92612 | 37174 ft | 448 kts | 23° |
| 2026-05-06 18:45 | 31.80548 | -66.89069 | 37204 ft | 448 kts | 23° |
| 2026-05-06 18:45 | 31.86018 | -66.85518 | 37178 ft | 450 kts | 23° |
| 2026-05-06 18:46 | 31.91501 | -66.81952 | 37176 ft | 451 kts | 23° |
| 2026-05-06 18:46 | 31.96979 | -66.78384 | 37174 ft | 452 kts | 23° |
| 2026-05-06 18:47 | 32.02485 | -66.74795 | 37184 ft | 452 kts | 23° |
| 2026-05-06 18:47 | 32.07980 | -66.71201 | 37170 ft | 451 kts | 23° |
| 2026-05-06 18:48 | 32.13463 | -66.67612 | 37169 ft | 450 kts | 23° |
| 2026-05-06 18:48 | 32.18897 | -66.64054 | 37172 ft | 449 kts | 23° |
| 2026-05-06 18:49 | 32.24354 | -66.60477 | 37177 ft | 449 kts | 23° |
| 2026-05-06 18:49 | 32.29804 | -66.56897 | 37189 ft | 448 kts | 23° |
| 2026-05-06 18:50 | 32.35264 | -66.53307 | 37172 ft | 449 kts | 23° |
| 2026-05-06 18:50 | 32.40732 | -66.49705 | 37167 ft | 451 kts | 23° |
| 2026-05-06 18:51 | 32.46215 | -66.46087 | 37188 ft | 452 kts | 23° |
| 2026-05-06 18:51 | 32.51698 | -66.42466 | 37175 ft | 452 kts | 23° |
| 2026-05-06 18:52 | 32.57188 | -66.38836 | 37164 ft | 452 kts | 23° |
| 2026-05-06 18:52 | 32.62670 | -66.35203 | 37167 ft | 451 kts | 23° |
| 2026-05-06 18:53 | 32.68142 | -66.31572 | 37182 ft | 450 kts | 23° |
| 2026-05-06 18:53 | 32.73612 | -66.27939 | 37165 ft | 450 kts | 23° |
| 2026-05-06 18:54 | 32.79067 | -66.24309 | 37178 ft | 449 kts | 23° |
| 2026-05-06 18:54 | 32.84526 | -66.20674 | 37167 ft | 450 kts | 23° |
| 2026-05-06 18:55 | 32.89997 | -66.17027 | 37176 ft | 451 kts | 23° |
| 2026-05-06 18:55 | 32.95470 | -66.13368 | 37166 ft | 451 kts | 23° |
| 2026-05-06 18:56 | 33.00944 | -66.09705 | 37160 ft | 451 kts | 23° |
| 2026-05-06 18:56 | 33.06416 | -66.06042 | 37163 ft | 451 kts | 23° |
| 2026-05-06 18:57 | 33.11879 | -66.02374 | 37175 ft | 450 kts | 23° |
| 2026-05-06 18:57 | 33.17344 | -65.98703 | 37163 ft | 451 kts | 23° |
| 2026-05-06 18:58 | 33.22803 | -65.95031 | 37165 ft | 450 kts | 23° |
| 2026-05-06 18:58 | 33.28220 | -65.91380 | 37171 ft | 450 kts | 23° |
| 2026-05-06 18:59 | 33.32799 | -65.88290 | 37175 ft | 451 kts | 23° |
| 2026-05-06 18:59 | 33.39161 | -65.83991 | 37162 ft | 452 kts | 23° |
| 2026-05-06 19:00 | 33.43751 | -65.80885 | 37159 ft | 453 kts | 23° |
| 2026-05-06 19:00 | 33.49229 | -65.77171 | 37167 ft | 452 kts | 23° |
| 2026-05-06 19:01 | 33.54706 | -65.73457 | 37162 ft | 452 kts | 23° |
| 2026-05-06 19:01 | 33.60178 | -65.69739 | 37157 ft | 452 kts | 24° |
| 2026-05-06 19:02 | 33.65612 | -65.66038 | 37158 ft | 452 kts | 24° |
| 2026-05-06 19:02 | 33.71076 | -65.62312 | 37157 ft | 452 kts | 24° |
| 2026-05-06 19:03 | 33.76541 | -65.58581 | 37148 ft | 452 kts | 24° |
| 2026-05-06 19:03 | 33.82011 | -65.54843 | 37153 ft | 452 kts | 24° |
| 2026-05-06 19:04 | 33.87479 | -65.51098 | 37166 ft | 452 kts | 24° |
| 2026-05-06 19:04 | 33.92950 | -65.47347 | 37154 ft | 452 kts | 24° |
| 2026-05-06 19:05 | 33.98417 | -65.43593 | 37153 ft | 453 kts | 24° |
| 2026-05-06 19:05 | 34.03885 | -65.39831 | 37160 ft | 452 kts | 24° |
| 2026-05-06 19:06 | 34.09351 | -65.36067 | 37156 ft | 452 kts | 24° |
| 2026-05-06 19:06 | 34.14816 | -65.32298 | 37158 ft | 452 kts | 24° |
| 2026-05-06 19:07 | 34.20275 | -65.28528 | 37172 ft | 453 kts | 24° |
| 2026-05-06 19:07 | 34.25746 | -65.24744 | 37164 ft | 453 kts | 24° |
| 2026-05-06 19:08 | 34.31214 | -65.20954 | 37152 ft | 453 kts | 24° |
| 2026-05-06 19:08 | 34.36692 | -65.17155 | 37171 ft | 454 kts | 24° |
| 2026-05-06 19:09 | 34.42173 | -65.13345 | 37160 ft | 455 kts | 24° |
| 2026-05-06 19:09 | 34.47657 | -65.09525 | 37156 ft | 454 kts | 24° |
| 2026-05-06 19:10 | 34.53137 | -65.05705 | 37149 ft | 454 kts | 24° |
| 2026-05-06 19:10 | 34.58613 | -65.01879 | 37160 ft | 454 kts | 24° |
| 2026-05-06 19:11 | 34.64047 | -64.98078 | 37157 ft | 454 kts | 24° |
| 2026-05-06 19:11 | 34.69515 | -64.94250 | 37160 ft | 454 kts | 24° |
| 2026-05-06 19:12 | 34.74985 | -64.90413 | 37152 ft | 454 kts | 24° |
| 2026-05-06 19:12 | 34.80460 | -64.86569 | 37157 ft | 455 kts | 24° |
| 2026-05-06 19:13 | 34.85939 | -64.82711 | 37159 ft | 455 kts | 24° |
| 2026-05-06 19:13 | 34.91421 | -64.78847 | 37163 ft | 455 kts | 24° |
| 2026-05-06 19:14 | 34.96902 | -64.74976 | 37155 ft | 455 kts | 24° |
| 2026-05-06 19:14 | 35.02385 | -64.71102 | 37161 ft | 455 kts | 24° |
| 2026-05-06 19:15 | 35.07867 | -64.67222 | 37166 ft | 456 kts | 24° |
| 2026-05-06 19:15 | 35.13350 | -64.63330 | 37160 ft | 456 kts | 24° |
| 2026-05-06 19:15 | 35.16097 | -64.61377 | 37266 ft | 458 kts | 24° |
| 2026-05-06 19:16 | 35.18850 | -64.59422 | 37507 ft | 457 kts | 25° |
| 2026-05-06 19:16 | 35.21596 | -64.57471 | 37764 ft | 456 kts | 25° |
| 2026-05-06 19:16 | 35.24332 | -64.55525 | 38035 ft | 455 kts | 25° |
| 2026-05-06 19:16 | 35.27070 | -64.53574 | 38282 ft | 455 kts | 25° |
| 2026-05-06 19:17 | 35.29806 | -64.51623 | 38483 ft | 455 kts | 25° |
| 2026-05-06 19:17 | 35.32505 | -64.49698 | 38692 ft | 455 kts | 25° |
| 2026-05-06 19:17 | 35.35180 | -64.47641 | 38870 ft | 459 kts | 30° |
| 2026-05-06 19:17 | 35.37616 | -64.45369 | 39009 ft | 462 kts | 34° |
| 2026-05-06 19:18 | 35.39901 | -64.42818 | 39082 ft | 467 kts | 39° |
| 2026-05-06 19:18 | 35.44349 | -64.37191 | 39152 ft | 471 kts | 40° |
| 2026-05-06 19:19 | 35.48861 | -64.31415 | 39168 ft | 472 kts | 40° |
| 2026-05-06 19:19 | 35.53404 | -64.25630 | 39162 ft | 473 kts | 40° |
| 2026-05-06 19:20 | 35.57921 | -64.19898 | 39151 ft | 473 kts | 40° |
| 2026-05-06 19:20 | 35.62399 | -64.14220 | 39155 ft | 472 kts | 40° |
| 2026-05-06 19:21 | 35.66887 | -64.08517 | 39155 ft | 470 kts | 40° |
| 2026-05-06 19:21 | 35.71258 | -64.02950 | 39163 ft | 469 kts | 40° |
| 2026-05-06 19:22 | 35.75771 | -63.97192 | 39159 ft | 467 kts | 40° |
| 2026-05-06 19:22 | 35.80278 | -63.91435 | 39153 ft | 466 kts | 40° |
| 2026-05-06 19:23 | 35.84767 | -63.85690 | 39150 ft | 465 kts | 40° |
| 2026-05-06 19:23 | 35.89251 | -63.79940 | 39150 ft | 465 kts | 40° |
| 2026-05-06 19:24 | 35.93729 | -63.74192 | 39158 ft | 465 kts | 41° |
| 2026-05-06 19:24 | 35.98181 | -63.68464 | 39163 ft | 465 kts | 41° |
| 2026-05-06 19:25 | 36.02648 | -63.62701 | 39152 ft | 465 kts | 41° |
| 2026-05-06 19:25 | 36.07124 | -63.56919 | 39164 ft | 466 kts | 41° |
| 2026-05-06 19:26 | 36.11600 | -63.51132 | 39152 ft | 466 kts | 41° |
| 2026-05-06 19:26 | 36.16064 | -63.45347 | 39155 ft | 466 kts | 41° |
| 2026-05-06 19:27 | 36.20541 | -63.39535 | 39167 ft | 467 kts | 41° |
| 2026-05-06 19:27 | 36.25019 | -63.33713 | 39146 ft | 467 kts | 41° |
| 2026-05-06 19:28 | 36.29454 | -63.27936 | 39159 ft | 467 kts | 41° |
| 2026-05-06 19:28 | 36.33929 | -63.22097 | 39149 ft | 467 kts | 41° |
| 2026-05-06 19:29 | 36.38396 | -63.16257 | 39148 ft | 467 kts | 41° |
| 2026-05-06 19:29 | 36.42865 | -63.10406 | 39154 ft | 467 kts | 42° |
| 2026-05-06 19:30 | 36.47334 | -63.04545 | 39159 ft | 468 kts | 42° |
| 2026-05-06 19:30 | 36.51796 | -62.98677 | 39156 ft | 468 kts | 42° |
| 2026-05-06 19:31 | 36.56273 | -62.92778 | 39156 ft | 469 kts | 42° |
| 2026-05-06 19:31 | 36.62954 | -62.83963 | 39157 ft | 469 kts | 42° |
| 2026-05-06 19:32 | 36.67437 | -62.78037 | 39155 ft | 471 kts | 43° |
| 2026-05-06 19:32 | 36.71930 | -62.72085 | 39160 ft | 472 kts | 43° |
| 2026-05-06 19:33 | 36.76435 | -62.66104 | 39161 ft | 474 kts | 43° |
| 2026-05-06 19:33 | 36.80948 | -62.60101 | 39158 ft | 474 kts | 43° |
| 2026-05-06 19:34 | 36.85464 | -62.54082 | 39157 ft | 475 kts | 43° |
| 2026-05-06 19:34 | 36.89977 | -62.48057 | 39157 ft | 476 kts | 44° |
| 2026-05-06 19:35 | 36.94502 | -62.42006 | 39166 ft | 477 kts | 44° |
| 2026-05-06 19:35 | 36.99031 | -62.35940 | 39164 ft | 479 kts | 44° |
| 2026-05-06 19:36 | 37.03573 | -62.29840 | 39168 ft | 479 kts | 44° |
| 2026-05-06 19:36 | 37.08109 | -62.23736 | 39164 ft | 480 kts | 44° |
| 2026-05-06 19:37 | 37.12629 | -62.17649 | 39159 ft | 482 kts | 45° |
| 2026-05-06 19:37 | 37.16455 | -62.12486 | 39173 ft | 483 kts | 45° |
| 2026-05-06 19:38 | 37.21777 | -62.05289 | 39168 ft | 485 kts | 45° |
| 2026-05-06 19:38 | 37.26372 | -61.99058 | 39169 ft | 487 kts | 45° |
| 2026-05-06 19:39 | 37.30972 | -61.92812 | 39168 ft | 488 kts | 45° |
| 2026-05-06 19:39 | 37.35586 | -61.86536 | 39167 ft | 490 kts | 46° |
| 2026-05-06 19:40 | 37.40224 | -61.80214 | 39173 ft | 493 kts | 46° |
| 2026-05-06 19:40 | 37.44873 | -61.73867 | 39174 ft | 495 kts | 46° |
| 2026-05-06 19:41 | 37.49538 | -61.67480 | 39164 ft | 496 kts | 46° |
| 2026-05-06 19:41 | 37.54215 | -61.61068 | 39177 ft | 497 kts | 46° |
| 2026-05-06 19:42 | 37.58889 | -61.54645 | 39170 ft | 498 kts | 46° |
| 2026-05-06 19:42 | 37.63525 | -61.48260 | 39170 ft | 497 kts | 46° |
| 2026-05-06 19:43 | 37.68190 | -61.41824 | 39171 ft | 496 kts | 46° |
| 2026-05-06 19:43 | 37.72829 | -61.35416 | 39177 ft | 495 kts | 46° |
| 2026-05-06 19:44 | 37.77465 | -61.28999 | 39174 ft | 495 kts | 48° |
| 2026-05-06 19:44 | 37.82108 | -61.22552 | 39184 ft | 497 kts | 48° |
| 2026-05-06 19:45 | 37.86765 | -61.16073 | 39188 ft | 498 kts | 47° |
| 2026-05-06 19:45 | 37.91422 | -61.09587 | 39181 ft | 499 kts | 48° |
| 2026-05-06 19:46 | 37.96094 | -61.03060 | 39175 ft | 501 kts | 49° |
| 2026-05-06 19:46 | 38.00780 | -60.96502 | 39195 ft | 503 kts | 49° |
| 2026-05-06 19:47 | 38.05481 | -60.89911 | 39190 ft | 506 kts | 49° |
| 2026-05-06 19:47 | 38.10211 | -60.83266 | 39191 ft | 508 kts | 49° |
| 2026-05-06 19:48 | 38.14951 | -60.76591 | 39191 ft | 509 kts | 49° |
| 2026-05-06 19:48 | 38.19697 | -60.69897 | 39185 ft | 512 kts | 50° |
| 2026-05-06 19:49 | 38.24429 | -60.63209 | 39194 ft | 514 kts | 50° |
| 2026-05-06 19:49 | 38.29221 | -60.56418 | 39196 ft | 516 kts | 50° |
| 2026-05-06 19:50 | 38.34021 | -60.49598 | 39197 ft | 518 kts | 50° |
| 2026-05-06 19:50 | 38.38837 | -60.42749 | 39185 ft | 520 kts | 51° |
| 2026-05-06 19:51 | 38.43665 | -60.35862 | 39210 ft | 522 kts | 51° |
| 2026-05-06 19:51 | 38.48503 | -60.28943 | 39211 ft | 524 kts | 51° |
| 2026-05-06 19:52 | 38.52856 | -60.21534 | 39206 ft | 521 kts | 60° |
| 2026-05-06 19:52 | 38.56768 | -60.13801 | 39197 ft | 522 kts | 61° |
| 2026-05-06 19:53 | 38.60706 | -60.05978 | 39210 ft | 525 kts | 61° |
| 2026-05-06 19:53 | 38.64687 | -59.98132 | 39212 ft | 527 kts | 60° |
| 2026-05-06 19:54 | 38.68684 | -59.90290 | 39218 ft | 528 kts | 60° |
| 2026-05-06 19:54 | 38.72050 | -59.83685 | 39202 ft | 530 kts | 62° |
| 2026-05-06 19:55 | 38.76044 | -59.75819 | 39217 ft | 530 kts | 62° |
| 2026-05-06 19:55 | 38.80062 | -59.67879 | 39217 ft | 531 kts | 62° |
| 2026-05-06 19:56 | 38.84077 | -59.59925 | 39215 ft | 532 kts | 62° |
| 2026-05-06 19:56 | 38.88100 | -59.51935 | 39211 ft | 533 kts | 62° |
| 2026-05-06 19:57 | 38.92121 | -59.43931 | 39221 ft | 534 kts | 62° |
| 2026-05-06 19:57 | 38.96145 | -59.35905 | 39224 ft | 534 kts | 62° |
| 2026-05-06 19:58 | 39.00161 | -59.27865 | 39214 ft | 535 kts | 63° |
| 2026-05-06 19:58 | 39.04182 | -59.19804 | 39223 ft | 536 kts | 63° |
| 2026-05-06 19:59 | 39.08174 | -59.11776 | 39227 ft | 536 kts | 63° |
| 2026-05-06 19:59 | 39.12184 | -59.03692 | 39227 ft | 537 kts | 63° |
| 2026-05-06 20:00 | 39.16202 | -58.95572 | 39224 ft | 538 kts | 63° |
| 2026-05-06 20:00 | 39.20228 | -58.87414 | 39247 ft | 540 kts | 63° |
| 2026-05-06 20:01 | 39.24254 | -58.79236 | 39239 ft | 540 kts | 63° |
| 2026-05-06 20:01 | 39.28283 | -58.71036 | 39236 ft | 541 kts | 63° |
| 2026-05-06 20:02 | 39.32312 | -58.62814 | 39238 ft | 542 kts | 63° |
| 2026-05-06 20:02 | 39.36336 | -58.54579 | 39239 ft | 542 kts | 63° |
| 2026-05-06 20:03 | 39.40362 | -58.46315 | 39227 ft | 544 kts | 63° |
| 2026-05-06 20:03 | 39.44384 | -58.38029 | 39237 ft | 545 kts | 63° |
| 2026-05-06 20:04 | 39.48411 | -58.29718 | 39252 ft | 546 kts | 63° |
| 2026-05-06 20:04 | 39.52440 | -58.21386 | 39250 ft | 548 kts | 63° |
| 2026-05-06 20:05 | 39.56475 | -58.13017 | 39239 ft | 548 kts | 64° |
| 2026-05-06 20:05 | 39.60510 | -58.04617 | 39250 ft | 549 kts | 63° |
| 2026-05-06 20:06 | 39.64547 | -57.96197 | 39256 ft | 550 kts | 63° |
| 2026-05-06 20:06 | 39.68591 | -57.87755 | 39249 ft | 551 kts | 63° |
| 2026-05-06 20:07 | 39.72606 | -57.79335 | 39260 ft | 552 kts | 63° |
| 2026-05-06 20:07 | 39.76639 | -57.70857 | 39262 ft | 553 kts | 63° |
| 2026-05-06 20:08 | 39.80684 | -57.62342 | 39264 ft | 554 kts | 63° |
| 2026-05-06 20:08 | 39.84731 | -57.53791 | 39269 ft | 555 kts | 63° |
| 2026-05-06 20:09 | 39.88778 | -57.45213 | 39278 ft | 557 kts | 63° |
| 2026-05-06 20:09 | 39.92822 | -57.36612 | 39260 ft | 558 kts | 63° |
| 2026-05-06 20:10 | 39.96874 | -57.27977 | 39271 ft | 558 kts | 63° |
| 2026-05-06 20:10 | 40.00918 | -57.19336 | 39283 ft | 558 kts | 63° |
| 2026-05-06 20:11 | 40.04926 | -57.10744 | 39287 ft | 559 kts | 63° |
| 2026-05-06 20:11 | 40.08962 | -57.02074 | 39289 ft | 559 kts | 63° |
| 2026-05-06 20:12 | 40.12994 | -56.93388 | 39283 ft | 559 kts | 63° |
| 2026-05-06 20:12 | 40.17017 | -56.84705 | 39285 ft | 560 kts | 63° |
| 2026-05-06 20:13 | 40.21037 | -56.75986 | 39301 ft | 560 kts | 63° |
| 2026-05-06 20:13 | 40.25061 | -56.67247 | 39292 ft | 561 kts | 63° |
| 2026-05-06 20:14 | 40.29081 | -56.58490 | 39296 ft | 562 kts | 62° |
| 2026-05-06 20:14 | 40.33103 | -56.49699 | 39303 ft | 563 kts | 63° |
| 2026-05-06 20:15 | 40.37117 | -56.40890 | 39306 ft | 564 kts | 62° |
| 2026-05-06 20:15 | 40.41143 | -56.32048 | 39304 ft | 565 kts | 62° |
| 2026-05-06 20:16 | 40.45139 | -56.23246 | 39306 ft | 565 kts | 62° |
| 2026-05-06 20:16 | 40.49154 | -56.14368 | 39309 ft | 565 kts | 62° |
| 2026-05-06 20:17 | 40.53165 | -56.05483 | 39313 ft | 566 kts | 62° |
| 2026-05-06 20:17 | 40.57175 | -55.96570 | 39307 ft | 565 kts | 62° |
| 2026-05-06 20:18 | 40.61172 | -55.87661 | 39319 ft | 566 kts | 62° |
| 2026-05-06 20:18 | 40.65166 | -55.78723 | 39322 ft | 567 kts | 62° |
| 2026-05-06 20:19 | 40.69152 | -55.69772 | 39316 ft | 567 kts | 62° |
| 2026-05-06 20:19 | 40.73132 | -55.60802 | 39321 ft | 567 kts | 62° |
| 2026-05-06 20:20 | 40.77122 | -55.51813 | 39327 ft | 568 kts | 62° |
| 2026-05-06 20:20 | 40.81108 | -55.42813 | 39329 ft | 568 kts | 62° |
| 2026-05-06 20:21 | 40.85081 | -55.33801 | 39330 ft | 568 kts | 62° |
| 2026-05-06 20:21 | 40.89051 | -55.24774 | 39335 ft | 569 kts | 62° |
| 2026-05-06 20:22 | 40.93014 | -55.15711 | 39341 ft | 569 kts | 62° |
| 2026-05-06 20:22 | 40.97000 | -55.06640 | 39335 ft | 571 kts | 61° |
| 2026-05-06 20:23 | 41.00938 | -54.97612 | 39327 ft | 570 kts | 62° |
| 2026-05-06 20:23 | 41.04865 | -54.88519 | 39335 ft | 568 kts | 62° |
| 2026-05-06 20:24 | 41.08782 | -54.79433 | 39353 ft | 567 kts | 62° |
| 2026-05-06 20:24 | 41.12698 | -54.70350 | 39337 ft | 567 kts | 62° |
| 2026-05-06 20:25 | 41.16611 | -54.61265 | 39350 ft | 568 kts | 61° |
| 2026-05-06 20:25 | 41.20524 | -54.52158 | 39348 ft | 568 kts | 62° |
| 2026-05-06 20:26 | 41.24425 | -54.43027 | 39351 ft | 568 kts | 62° |
| 2026-05-06 20:26 | 41.28319 | -54.33894 | 39357 ft | 569 kts | 61° |
| 2026-05-06 20:27 | 41.32212 | -54.24734 | 39359 ft | 569 kts | 62° |
| 2026-05-06 20:27 | 41.36102 | -54.15553 | 39360 ft | 570 kts | 62° |
| 2026-05-06 20:28 | 41.39993 | -54.06342 | 39360 ft | 571 kts | 61° |
| 2026-05-06 20:28 | 41.43878 | -53.97118 | 39364 ft | 571 kts | 61° |
| 2026-05-06 20:29 | 41.47734 | -53.87931 | 39360 ft | 572 kts | 61° |
| 2026-05-06 20:29 | 41.51635 | -53.78608 | 39371 ft | 572 kts | 61° |
| 2026-05-06 20:30 | 41.57412 | -53.64752 | 39379 ft | 572 kts | 61° |
| 2026-05-06 20:31 | 41.61275 | -53.55438 | 39390 ft | 574 kts | 61° |
| 2026-05-06 20:31 | 41.65145 | -53.46094 | 39382 ft | 575 kts | 60° |
| 2026-05-06 20:32 | 41.69010 | -53.36735 | 39386 ft | 575 kts | 61° |
| 2026-05-06 20:32 | 41.72861 | -53.27374 | 39393 ft | 574 kts | 60° |
| 2026-05-06 20:33 | 41.76701 | -53.18012 | 39384 ft | 573 kts | 60° |
| 2026-05-06 20:33 | 41.80528 | -53.08641 | 39390 ft | 573 kts | 60° |
| 2026-05-06 20:34 | 41.84342 | -52.99278 | 39400 ft | 572 kts | 60° |
| 2026-05-06 20:34 | 41.88154 | -52.89901 | 39395 ft | 573 kts | 60° |
| 2026-05-06 20:35 | 41.91956 | -52.80511 | 39400 ft | 573 kts | 60° |
| 2026-05-06 20:35 | 41.95750 | -52.71104 | 39407 ft | 573 kts | 60° |
| 2026-05-06 20:36 | 41.99544 | -52.61672 | 39405 ft | 573 kts | 60° |
| 2026-05-06 20:36 | 42.03329 | -52.52235 | 39409 ft | 573 kts | 60° |
| 2026-05-06 20:37 | 42.07077 | -52.42861 | 39411 ft | 574 kts | 60° |
| 2026-05-06 20:37 | 42.10846 | -52.33392 | 39414 ft | 574 kts | 60° |
| 2026-05-06 20:38 | 42.14611 | -52.23912 | 39411 ft | 574 kts | 60° |
| 2026-05-06 20:38 | 42.18368 | -52.14415 | 39413 ft | 574 kts | 60° |
| 2026-05-06 20:39 | 42.22119 | -52.04912 | 39410 ft | 574 kts | 60° |
| 2026-05-06 20:39 | 42.25862 | -51.95386 | 39427 ft | 574 kts | 60° |
| 2026-05-06 20:40 | 42.29601 | -51.85848 | 39419 ft | 575 kts | 60° |
| 2026-05-06 20:40 | 42.33327 | -51.76302 | 39418 ft | 575 kts | 60° |
| 2026-05-06 20:41 | 42.37058 | -51.66734 | 39432 ft | 575 kts | 60° |
| 2026-05-06 20:41 | 42.40774 | -51.57164 | 39427 ft | 574 kts | 60° |
| 2026-05-06 20:42 | 42.44479 | -51.47583 | 39430 ft | 574 kts | 60° |
| 2026-05-06 20:42 | 42.48166 | -51.37997 | 39438 ft | 574 kts | 60° |
| 2026-05-06 20:43 | 42.51857 | -51.28380 | 39425 ft | 575 kts | 60° |
| 2026-05-06 20:43 | 42.55548 | -51.18749 | 39436 ft | 576 kts | 60° |
| 2026-05-06 20:44 | 42.59229 | -51.09111 | 39446 ft | 575 kts | 59° |
| 2026-05-06 20:44 | 42.62911 | -50.99462 | 39444 ft | 576 kts | 60° |
| 2026-05-06 20:45 | 42.66570 | -50.89773 | 39441 ft | 577 kts | 60° |
| 2026-05-06 20:45 | 42.69144 | -50.82951 | 39442 ft | 577 kts | 60° |
| 2026-05-06 20:46 | 42.72601 | -50.73780 | 39450 ft | 577 kts | 59° |
| 2026-05-06 20:46 | 42.76210 | -50.64176 | 39442 ft | 577 kts | 59° |
| 2026-05-06 20:47 | 42.79241 | -50.56081 | 39442 ft | 578 kts | 59° |
| 2026-05-06 20:47 | 42.83468 | -50.44757 | 39445 ft | 576 kts | 59° |
| 2026-05-06 20:48 | 42.87086 | -50.35023 | 39446 ft | 575 kts | 59° |
| 2026-05-06 20:48 | 42.90105 | -50.26875 | 39451 ft | 574 kts | 59° |
| 2026-05-06 20:49 | 42.93695 | -50.17150 | 39465 ft | 573 kts | 59° |
| 2026-05-06 20:49 | 42.97275 | -50.07432 | 39457 ft | 573 kts | 59° |
| 2026-05-06 20:50 | 43.00841 | -49.97699 | 39453 ft | 574 kts | 59° |
| 2026-05-06 20:50 | 43.04366 | -49.87929 | 39467 ft | 573 kts | 60° |
| 2026-05-06 20:51 | 43.07837 | -49.78219 | 39446 ft | 571 kts | 60° |
| 2026-05-06 20:51 | 43.11318 | -49.68487 | 39455 ft | 569 kts | 60° |
| 2026-05-06 20:52 | 43.14779 | -49.58771 | 39474 ft | 566 kts | 60° |
| 2026-05-06 20:52 | 43.18209 | -49.49094 | 39457 ft | 563 kts | 60° |
| 2026-05-06 20:53 | 43.21623 | -49.39455 | 39461 ft | 561 kts | 60° |
| 2026-05-06 20:53 | 43.25011 | -49.29816 | 39466 ft | 561 kts | 60° |
| 2026-05-06 20:54 | 43.28405 | -49.20177 | 39463 ft | 562 kts | 60° |
| 2026-05-06 20:54 | 43.31789 | -49.10522 | 39473 ft | 564 kts | 60° |
| 2026-05-06 20:55 | 43.35187 | -49.00778 | 39487 ft | 565 kts | 60° |
| 2026-05-06 20:55 | 43.38569 | -48.91045 | 39467 ft | 563 kts | 60° |
| 2026-05-06 20:56 | 43.41922 | -48.81339 | 39456 ft | 561 kts | 60° |
| 2026-05-06 20:56 | 43.45263 | -48.71656 | 39479 ft | 559 kts | 60° |
| 2026-05-06 20:57 | 43.48594 | -48.61993 | 39458 ft | 557 kts | 60° |
| 2026-05-06 20:57 | 43.51911 | -48.52343 | 39472 ft | 557 kts | 60° |
| 2026-05-06 20:58 | 43.55203 | -48.42685 | 39459 ft | 555 kts | 60° |
| 2026-05-06 20:58 | 43.58474 | -48.33065 | 39475 ft | 553 kts | 61° |
| 2026-05-06 20:59 | 43.61723 | -48.23464 | 39473 ft | 552 kts | 61° |
| 2026-05-06 20:59 | 43.64967 | -48.13862 | 39465 ft | 552 kts | 61° |
| 2026-05-06 21:00 | 43.68203 | -48.04253 | 39468 ft | 552 kts | 60° |
| 2026-05-06 21:00 | 43.71449 | -47.94642 | 39472 ft | 553 kts | 60° |
| 2026-05-06 21:01 | 43.74664 | -47.84987 | 39471 ft | 552 kts | 61° |
| 2026-05-06 21:01 | 43.77870 | -47.75356 | 39476 ft | 550 kts | 60° |
| 2026-05-06 21:02 | 43.81062 | -47.65705 | 39471 ft | 551 kts | 61° |
| 2026-05-06 21:02 | 43.84241 | -47.56088 | 39465 ft | 551 kts | 61° |
| 2026-05-06 21:03 | 43.87428 | -47.46402 | 39476 ft | 550 kts | 61° |
| 2026-05-06 21:03 | 43.90594 | -47.36781 | 39458 ft | 548 kts | 61° |
| 2026-05-06 21:04 | 43.93738 | -47.27172 | 39461 ft | 545 kts | 61° |
| 2026-05-06 21:04 | 43.96860 | -47.17595 | 39466 ft | 544 kts | 61° |
| 2026-05-06 21:05 | 43.99964 | -47.08015 | 39478 ft | 543 kts | 61° |
| 2026-05-06 21:05 | 44.03066 | -46.98446 | 39456 ft | 543 kts | 62° |
| 2026-05-06 21:06 | 44.06159 | -46.88889 | 39451 ft | 542 kts | 61° |
| 2026-05-06 21:06 | 44.09213 | -46.79393 | 39459 ft | 540 kts | 62° |
| 2026-05-06 21:07 | 44.12259 | -46.69870 | 39446 ft | 538 kts | 61° |
| 2026-05-06 21:07 | 44.15286 | -46.60367 | 39454 ft | 538 kts | 61° |
| 2026-05-06 21:08 | 44.18313 | -46.50851 | 39471 ft | 537 kts | 61° |
| 2026-05-06 21:08 | 44.21323 | -46.41353 | 39460 ft | 534 kts | 62° |
| 2026-05-06 21:09 | 44.24309 | -46.31886 | 39456 ft | 533 kts | 62° |
| 2026-05-06 21:09 | 44.27265 | -46.22421 | 39428 ft | 532 kts | 61° |
| 2026-05-06 21:10 | 44.30252 | -46.12970 | 39446 ft | 532 kts | 62° |
| 2026-05-06 21:10 | 44.32125 | -46.06935 | 39449 ft | 532 kts | 62° |